Troviken — C6ZT9 — position and weather

sailwx.info

Track history (hours):
 
Tides and Currents Weather Stations Pressure Air Temp Water Temp Dewpoint Dewpoint Depression Visibility Wind Speed Wind Dir Waves Ship Positions

Troviken

Last reported at 2017-Jul-04 07:36 UTC. Time now 2017-Jul-28 16:43 UTC.
Position N 38°04' W 074°26'.
Warning: this ship's position is 24 days out of date.

Length 250 m; draft 8.5 m.

Type: Tanker. MMSI: 311066200.

Date/timePositionNaut miles runAvg speedWind from/ knotsBaromVisibWave heightAir tempDewpointWater temp
2017-Jul-04 07:36N 38°04' W 074°26'112.1
2017-Jul-04 07:29N 38°05' W 074°27'612.2
2017-Jul-04 07:00N 38°10' W 074°31'612.4
2017-Jul-04 06:30N 38°16' W 074°35'612.5
2017-Jul-04 06:00N 38°21' W 074°39'612.4
2017-Jul-04 05:29N 38°26' W 074°43'612.5
2017-Jul-04 05:00N 38°31' W 074°48'812.6
2017-Jul-04 04:22N 38°38' W 074°54'613.3
2017-Jul-04 03:57N 38°42' W 074°58'613.8
2017-Jul-04 03:31N 38°47' W 075°03'611.8
2017-Jul-04 03:01N 38°53' W 075°05'713.4
2017-Jul-04 02:31N 38°59' W 075°08'815.2
2017-Jul-04 02:01N 39°06' W 075°12'714.7
2017-Jul-04 01:30N 39°12' W 075°17'713.9
2017-Jul-04 01:00N 39°18' W 075°22'713.1
2017-Jul-04 00:30N 39°23' W 075°28'612.1
2017-Jul-04 00:00N 39°27' W 075°33'611.0
2017-Jul-03 23:31N 39°32' W 075°33'510.6
2017-Jul-03 23:01N 39°38' W 075°35'510.7
2017-Jul-03 22:31N 39°42' W 075°31'5 9.6
2017-Jul-03 22:01N 39°46' W 075°28'4 8.8
2017-Jul-03 21:31N 39°49' W 075°24'5 9.7
2017-Jul-03 21:00N 39°51' W 075°18'4 7.7
2017-Jul-03 20:30N 39°52' W 075°13'0 0.3
2017-Jul-03 20:00N 39°52' W 075°13'0 0.0
2017-Jul-03 19:27N 39°52' W 075°13'0 0.0
2017-Jul-03 19:00N 39°52' W 075°13'0 0.0
2017-Jul-03 18:30N 39°52' W 075°13'0 0.0
2017-Jul-03 18:00N 39°52' W 075°13'0 0.0
2017-Jul-03 17:27N 39°52' W 075°13'0 0.0
2017-Jul-03 17:00N 39°52' W 075°13'0 0.0
2017-Jul-03 16:30N 39°52' W 075°13'0 0.0
2017-Jul-03 16:00N 39°52' W 075°13'0 0.0
2017-Jul-03 15:30N 39°52' W 075°13'0 0.0
2017-Jul-03 15:00N 39°52' W 075°13'0 0.0
2017-Jul-03 14:00N 39°52' W 075°13'0 0.0
2017-Jul-03 13:30N 39°52' W 075°13'0 0.0
2017-Jul-03 13:00N 39°52' W 075°13'0 0.0
2017-Jul-03 12:30N 39°52' W 075°13'0 0.0
2017-Jul-03 12:00N 39°52' W 075°13'0 0.0
2017-Jul-03 11:30N 39°52' W 075°13'0 0.0
2017-Jul-03 11:00N 39°52' W 075°13'0 0.0
2017-Jul-03 10:30N 39°52' W 075°13'0 0.0
2017-Jul-03 10:00N 39°52' W 075°13'0 0.0
2017-Jul-03 09:30N 39°52' W 075°13'0 0.0
2017-Jul-03 09:00N 39°52' W 075°13'0 0.0
2017-Jul-03 08:30N 39°52' W 075°13'0 0.0
2017-Jul-03 08:00N 39°52' W 075°13'0 0.0
2017-Jul-03 07:30N 39°52' W 075°13'0 0.0
2017-Jul-03 07:00N 39°52' W 075°13'0 0.0
2017-Jul-03 06:30N 39°52' W 075°13'0 0.0
2017-Jul-03 06:00N 39°52' W 075°13'0 0.0
2017-Jul-03 05:30N 39°52' W 075°13'0 0.0
2017-Jul-03 05:00N 39°52' W 075°13'0 0.0
2017-Jul-03 04:30N 39°52' W 075°13'0 0.0
2017-Jul-03 04:00N 39°52' W 075°13'0 0.0
2017-Jul-03 03:30N 39°52' W 075°13'0 0.0
2017-Jul-03 03:00N 39°52' W 075°13'0 0.0
2017-Jul-03 02:30N 39°52' W 075°13'0 0.0
2017-Jul-03 02:00N 39°52' W 075°13'0 0.0
2017-Jul-03 01:30N 39°52' W 075°13'0 0.0
2017-Jul-03 01:00N 39°52' W 075°13'0 0.0
2017-Jul-03 00:30N 39°52' W 075°13'0 0.0
2017-Jul-03 00:00N 39°52' W 075°13'0 0.0
2017-Jul-02 23:30N 39°52' W 075°13'0 0.0
2017-Jul-02 23:00N 39°52' W 075°13'0 0.0
2017-Jul-02 22:30N 39°52' W 075°13'0 0.0
2017-Jul-02 22:00N 39°52' W 075°13'0 0.0
2017-Jul-02 21:30N 39°52' W 075°13'0 0.0
2017-Jul-02 21:00N 39°52' W 075°13'0 0.0
2017-Jul-02 20:30N 39°52' W 075°13'0 0.0
2017-Jul-02 20:00N 39°52' W 075°13'0 0.0
2017-Jul-02 19:30N 39°52' W 075°13'0 0.2
2017-Jul-02 19:00N 39°52' W 075°13'2 3.5
2017-Jul-02 18:30N 39°51' W 075°15'3 7.0
2017-Jul-02 18:00N 39°51' W 075°20'4 7.6
2017-Jul-02 17:30N 39°49' W 075°24'4 7.4
2017-Jul-02 17:00N 39°47' W 075°28'5 9.9
2017-Jul-02 16:30N 39°42' W 075°31'5 9.7
2017-Jul-02 16:00N 39°38' W 075°34'4 8.6
2017-Jul-02 15:30N 39°34' W 075°33'5 9.7
2017-Jul-02 15:00N 39°29' W 075°34'1010.1
2017-Jul-02 14:00N 39°21' W 075°26'510.5
2017-Jul-02 13:31N 39°17' W 075°22'510.8
2017-Jul-02 13:01N 39°13' W 075°17'611.3
2017-Jul-02 12:30N 39°08' W 075°14'611.3
2017-Jul-02 12:01N 39°03' W 075°10'611.4
2017-Jul-02 11:30N 38°58' W 075°07'5 9.5
2017-Jul-02 11:00N 38°53' W 075°06'612.2
2017-Jul-02 10:30N 38°58' W 075°11'2 4.2
2017-Jul-02 10:00N 38°59' W 075°13'0 0.0
2017-Jul-02 09:29N 38°59' W 075°13'0 0.1
2017-Jul-02 08:59N 38°59' W 075°13'0 0.0
2017-Jul-02 08:29N 38°59' W 075°13'0 0.0
2017-Jul-02 07:59N 38°59' W 075°13'0 0.0
2017-Jul-02 07:29N 38°59' W 075°13'0 0.0
2017-Jul-02 06:59N 38°59' W 075°13'0 0.0
2017-Jul-02 06:29N 38°59' W 075°13'0 0.0
2017-Jul-02 05:59N 38°59' W 075°13'0 0.0
2017-Jul-02 05:29N 38°59' W 075°13'0 0.1
2017-Jul-02 04:59N 38°59' W 075°13'0 0.3
2017-Jul-02 04:29N 38°59' W 075°13'0 0.2
2017-Jul-02 03:56N 38°59' W 075°13'0 0.1
2017-Jul-02 03:29N 38°59' W 075°13'0 0.1
2017-Jul-02 02:59N 38°59' W 075°13'0 0.0
2017-Jul-02 02:26N 38°59' W 075°13'0 0.0
2017-Jul-02 01:59N 38°59' W 075°13'0 0.0
2017-Jul-02 01:29N 38°59' W 075°13'0 0.0
2017-Jul-02 00:59N 38°59' W 075°13'0 0.0
2017-Jul-02 00:29N 38°59' W 075°13'0 0.0
2017-Jul-01 23:56N 38°59' W 075°13'0 0.1
2017-Jul-01 23:29N 38°59' W 075°13'0 0.1
2017-Jul-01 22:59N 38°59' W 075°13'0 0.3
2017-Jul-01 22:29N 38°59' W 075°13'0 0.1
2017-Jul-01 20:56N 38°59' W 075°13'0 0.0
2017-Jul-01 20:29N 38°59' W 075°13'0 0.0
2017-Jul-01 16:47N 38°59' W 075°13'0 0.0
2017-Jul-01 16:26N 38°59' W 075°13'0 0.2
2017-Jul-01 15:59N 38°59' W 075°13'0 0.4
2017-Jul-01 15:29N 38°59' W 075°13'0 0.1
2017-Jul-01 14:59N 38°59' W 075°13'0 0.0
2017-Jul-01 13:59N 38°59' W 075°13'0 0.1
2017-Jul-01 13:29N 38°59' W 075°13'0 0.0
2017-Jul-01 12:59N 38°59' W 075°13'0 0.0
2017-Jul-01 12:29N 38°59' W 075°13'0 0.0
2017-Jul-01 11:59N 38°59' W 075°13'0 0.0
2017-Jul-01 11:26N 38°59' W 075°13'0 0.0
2017-Jul-01 10:59N 38°59' W 075°13'0 0.1
2017-Jul-01 10:29N 38°59' W 075°13'0 0.2
2017-Jul-01 09:59N 38°59' W 075°13'0 0.3
2017-Jul-01 09:26N 38°59' W 075°13'0 0.0
2017-Jul-01 07:23N 38°59' W 075°13'0 0.0
2017-Jul-01 05:47N 38°59' W 075°13'0 0.0
2017-Jul-01 04:23N 38°59' W 075°13'0 0.0
2017-Jul-01 03:56N 38°59' W 075°13'0 0.3
2017-Jul-01 03:29N 38°59' W 075°13'0 0.3
2017-Jul-01 02:56N 38°59' W 075°13'0 0.2
2017-Jul-01 02:29N 38°59' W 075°13'0 0.0
2017-Jul-01 01:59N 38°59' W 075°13'0 0.0
2017-Jul-01 01:29N 38°59' W 075°13'0 0.0
2017-Jul-01 00:59N 38°59' W 075°13'0 0.0
2017-Jul-01 00:29N 38°59' W 075°13'0 0.0
2017-Jun-30 23:50N 38°59' W 075°13'0 0.0
2017-Jun-30 23:29N 38°59' W 075°13'0 0.1
2017-Jun-30 22:05N 38°59' W 075°13'0 0.1
2017-Jun-30 21:59N 38°59' W 075°13'0 0.2
2017-Jun-30 21:23N 38°59' W 075°13'0 0.0
2017-Jun-30 18:17N 38°59' W 075°13'0 0.0
2017-Jun-30 17:41N 38°59' W 075°13'0 0.0
2017-Jun-30 16:20N 38°59' W 075°13'0 0.0
2017-Jun-30 15:59N 38°59' W 075°13'0 0.0
2017-Jun-30 15:29N 38°59' W 075°13'0 0.3
2017-Jun-30 14:59N 38°59' W 075°13'0 0.3
2017-Jun-30 14:29N 38°59' W 075°13'0 0.1
2017-Jun-30 13:59N 38°59' W 075°13'0 0.0
2017-Jun-30 13:29N 38°59' W 075°13'0 0.0
2017-Jun-30 12:59N 38°59' W 075°13'0 0.0
2017-Jun-30 12:30N 38°59' W 075°13'0 0.0
2017-Jun-30 11:53N 38°59' W 075°13'0 0.0
2017-Jun-30 11:29N 38°59' W 075°13'0 0.0
2017-Jun-30 10:59N 38°59' W 075°13'0 0.0
2017-Jun-30 10:29N 38°59' W 075°13'0 0.0
2017-Jun-30 09:59N 38°59' W 075°13'0 0.1
2017-Jun-30 09:26N 38°59' W 075°13'0 0.3
2017-Jun-30 08:59N 38°59' W 075°13'0 0.3
2017-Jun-30 08:29N 38°59' W 075°13'0 0.0
2017-Jun-30 06:02N 38°59' W 075°13'0 0.0
2017-Jun-30 05:59N 38°59' W 075°13'0 0.0
2017-Jun-30 04:11N 38°59' W 075°13'0 0.0
2017-Jun-30 03:44N 38°59' W 075°13'0 0.0
2017-Jun-30 02:48N 38°59' W 075°13'0 0.2
2017-Jun-30 02:23N 38°59' W 075°13'0 0.4
2017-Jun-30 01:59N 38°59' W 075°13'0 0.2
2017-Jun-30 01:30N 38°59' W 075°13'0 0.1
2017-Jun-30 00:59N 38°59' W 075°13'0 0.0
2017-Jun-30 00:26N 38°59' W 075°13'0 0.0
2017-Jun-29 23:53N 38°59' W 075°13'0 0.0
2017-Jun-29 23:29N 38°59' W 075°13'0 0.0
2017-Jun-29 22:59N 38°59' W 075°13'0 0.2
2017-Jun-29 22:29N 38°59' W 075°13'0 0.1
2017-Jun-29 21:59N 38°59' W 075°13'0 0.0
2017-Jun-29 21:29N 38°59' W 075°13'0 0.2
2017-Jun-29 20:59N 38°59' W 075°13'0 0.2
2017-Jun-29 20:20N 38°59' W 075°13'0 0.1
2017-Jun-29 18:56N 38°59' W 075°13'0 0.0
2017-Jun-29 16:23N 38°59' W 075°13'0 0.0
2017-Jun-29 14:35N 38°59' W 075°13'0 0.1
2017-Jun-29 13:59N 38°59' W 075°13'0 0.4
2017-Jun-29 13:29N 38°59' W 075°13'0 0.2
2017-Jun-29 12:59N 38°59' W 075°13'0 0.0
2017-Jun-29 12:29N 38°59' W 075°13'0 0.0
2017-Jun-29 11:56N 38°59' W 075°13'0 0.0
2017-Jun-29 11:23N 38°59' W 075°13'0 0.0
2017-Jun-29 10:59N 38°59' W 075°13'0 0.1
2017-Jun-29 10:29N 38°59' W 075°13'0 0.0
2017-Jun-29 09:59N 38°59' W 075°13'0 0.0
2017-Jun-29 09:29N 38°59' W 075°13'0 0.0
2017-Jun-29 08:59N 38°59' W 075°13'0 0.2
2017-Jun-29 08:29N 38°59' W 075°13'0 0.3
2017-Jun-29 07:59N 38°59' W 075°13'0 0.2
2017-Jun-29 07:29N 38°59' W 075°13'0 0.1
2017-Jun-29 06:59N 38°59' W 075°13'0 0.0
2017-Jun-29 06:26N 38°59' W 075°13'0 0.0
2017-Jun-29 05:50N 38°59' W 075°13'0 0.0
2017-Jun-29 05:26N 38°59' W 075°13'0 0.1
2017-Jun-29 04:53N 38°59' W 075°13'0 0.0
2017-Jun-29 04:29N 38°59' W 075°13'0 0.0
2017-Jun-29 03:59N 38°59' W 075°13'0 0.0
2017-Jun-29 03:24N 38°59' W 075°13'0 0.0
2017-Jun-29 02:59N 38°59' W 075°13'0 0.0
2017-Jun-29 02:29N 38°59' W 075°13'0 0.0
2017-Jun-29 01:59N 38°59' W 075°13'0 0.1
2017-Jun-29 01:26N 38°59' W 075°13'0 0.3
2017-Jun-29 00:59N 38°59' W 075°13'0 0.2
2017-Jun-29 00:26N 38°59' W 075°13'0 0.1
2017-Jun-28 23:56N 38°59' W 075°13'0 0.1
2017-Jun-28 23:29N 38°59' W 075°13'0 0.1
2017-Jun-28 22:59N 38°59' W 075°13'0 0.0
2017-Jun-28 22:29N 38°59' W 075°13'0 0.0
2017-Jun-28 21:59N 38°59' W 075°13'0 0.0
2017-Jun-28 21:29N 38°59' W 075°13'0 0.0
2017-Jun-28 20:59N 38°59' W 075°13'0 0.0
2017-Jun-27 22:26N 38°59' W 075°13'0 0.0
2017-Jun-27 21:59N 38°59' W 075°13'0 0.0
2017-Jun-27 21:29N 38°59' W 075°13'0 0.0
2017-Jun-27 20:59N 38°59' W 075°13'0 0.0
2017-Jun-27 20:26N 38°59' W 075°13'0 0.0
2017-Jun-27 19:59N 38°59' W 075°13'0 0.0
2017-Jun-27 19:29N 38°59' W 075°13'0 0.1
2017-Jun-27 16:11N 38°59' W 075°13'0 0.0
2017-Jun-27 12:53N 38°59' W 075°13'0 0.2
2017-Jun-27 12:29N 38°59' W 075°13'0 0.4
2017-Jun-27 11:53N 38°59' W 075°13'0 0.1
2017-Jun-27 11:29N 38°59' W 075°13'0 0.0
2017-Jun-27 10:56N 38°59' W 075°13'0 0.1
2017-Jun-27 10:29N 38°59' W 075°13'0 0.1
2017-Jun-27 09:53N 38°59' W 075°13'0 0.1
2017-Jun-27 09:23N 38°59' W 075°13'0 0.1
2017-Jun-27 08:23N 38°59' W 075°13'0 0.0
2017-Jun-27 07:53N 38°59' W 075°13'0 0.0
2017-Jun-27 07:29N 38°59' W 075°13'0 0.0
2017-Jun-27 06:56N 38°59' W 075°13'0 0.2
2017-Jun-27 06:29N 38°59' W 075°13'0 0.3
2017-Jun-27 05:59N 38°59' W 075°13'0 0.3
2017-Jun-27 05:29N 38°59' W 075°13'0 0.1
2017-Jun-27 04:53N 38°59' W 075°13'0 0.0
2017-Jun-27 04:26N 38°59' W 075°13'0 0.0
2017-Jun-27 03:56N 38°59' W 075°13'0 0.0
2017-Jun-27 02:44N 38°59' W 075°13'0 0.1
2017-Jun-27 02:29N 38°59' W 075°13'0 0.0
2017-Jun-27 01:59N 38°59' W 075°13'0 0.0
2017-Jun-27 01:29N 38°59' W 075°13'0 0.0
2017-Jun-27 00:59N 38°59' W 075°13'0 0.1
2017-Jun-26 23:23N 38°59' W 075°13'0 0.4
2017-Jun-26 22:56N 38°59' W 075°13'0 0.1
2017-Jun-26 22:20N 38°59' W 075°13'0 0.0
2017-Jun-26 21:59N 38°59' W 075°13'0 0.1
2017-Jun-26 21:27N 38°59' W 075°13'0 0.1
2017-Jun-26 20:59N 38°59' W 075°13'0 0.0
2017-Jun-26 20:29N 38°59' W 075°13'0 0.1
2017-Jun-26 19:59N 38°59' W 075°13'0 0.0
2017-Jun-26 19:20N 38°59' W 075°13'0 0.0
2017-Jun-26 18:56N 38°59' W 075°13'0 0.2
2017-Jun-26 18:29N 38°59' W 075°13'0 0.3
2017-Jun-26 17:35N 38°59' W 075°13'0 0.1
2017-Jun-26 17:29N 38°59' W 075°13'0 0.0
2017-Jun-26 16:59N 38°59' W 075°13'0 0.0
2017-Jun-26 15:23N 38°59' W 075°13'0 0.0
2017-Jun-26 11:56N 38°59' W 075°13'0 0.4
2017-Jun-26 11:17N 38°59' W 075°13'0 0.1
2017-Jun-26 10:59N 38°59' W 075°13'0 0.0
2017-Jun-26 10:29N 38°59' W 075°13'0 0.0
2017-Jun-26 09:59N 38°59' W 075°13'0 0.0
2017-Jun-26 09:26N 38°59' W 075°13'0 0.0
2017-Jun-26 08:59N 38°59' W 075°13'0 0.0
2017-Jun-26 08:29N 38°59' W 075°13'0 0.0
2017-Jun-26 07:59N 38°59' W 075°13'0 0.1
2017-Jun-26 07:29N 38°59' W 075°13'0 0.0
2017-Jun-26 06:59N 38°59' W 075°13'0 0.1
2017-Jun-26 06:29N 38°59' W 075°13'0 0.1
2017-Jun-26 05:59N 38°59' W 075°13'0 0.1
2017-Jun-26 05:29N 38°59' W 075°13'0 0.3
2017-Jun-26 04:56N 38°59' W 075°13'0 0.4
2017-Jun-26 04:29N 38°59' W 075°13'0 0.1
2017-Jun-26 03:59N 38°59' W 075°13'0 0.0
2017-Jun-26 03:29N 38°59' W 075°13'0 0.1
2017-Jun-26 02:50N 38°59' W 075°13'0 0.3
2017-Jun-26 02:30N 38°59' W 075°13'2 3.6
2017-Jun-26 02:01N 38°58' W 075°12'611.1
2017-Jun-26 01:30N 38°53' W 075°08'713.2
2017-Jun-26 01:00N 38°48' W 075°03'4 7.7
2017-Jun-26 00:31N 38°46' W 074°59'4 7.9
2017-Jun-26 00:01N 38°43' W 074°55'1010.7
2017-Jun-25 23:07N 38°35' W 074°47'112.1
2017-Jun-25 23:00N 38°34' W 074°46'612.0
2017-Jun-25 22:29N 38°29' W 074°41'611.2
2017-Jun-25 21:55N 38°26' W 074°35'2 2.8
2017-Jun-25 21:19N 38°25' W 074°32'1 3.7
2017-Jun-25 20:59N 38°25' W 074°31'612.0
2017-Jun-25 20:30N 38°24' W 074°24'612.8
2017-Jun-25 20:00N 38°26' W 074°16'613.0
2017-Jun-25 19:30N 38°29' W 074°08'713.1
2017-Jun-25 19:00N 38°31' W 074°01'713.3
2017-Jun-25 18:30N 38°33' W 073°53'713.1
2017-Jun-25 17:58N 38°36' W 073°44'  
Track history (hours):
 
Tides and Currents Weather Stations Pressure Air Temp Water Temp Dewpoint Dewpoint Depression Visibility Wind Speed Wind Dir Waves Ship Positions

Troviken

Last reported at 2017-Jul-04 07:36 UTC. Time now 2017-Jul-28 16:43 UTC.
Position N 38°04' W 074°26'.
Warning: this ship's position is 24 days out of date.

Length 250 m; draft 8.5 m.

Type: Tanker. MMSI: 311066200.

Date/timePositionNaut miles runAvg speedWind from/ knotsBaromVisibWave heightAir tempDewpointWater temp
2017-Jul-04 07:36N 38°04' W 074°26'112.1
2017-Jul-04 07:29N 38°05' W 074°27'612.2
2017-Jul-04 07:00N 38°10' W 074°31'612.4
2017-Jul-04 06:30N 38°16' W 074°35'612.5
2017-Jul-04 06:00N 38°21' W 074°39'612.4
2017-Jul-04 05:29N 38°26' W 074°43'612.5
2017-Jul-04 05:00N 38°31' W 074°48'812.6
2017-Jul-04 04:22N 38°38' W 074°54'613.3
2017-Jul-04 03:57N 38°42' W 074°58'613.8
2017-Jul-04 03:31N 38°47' W 075°03'611.8
2017-Jul-04 03:01N 38°53' W 075°05'713.4
2017-Jul-04 02:31N 38°59' W 075°08'815.2
2017-Jul-04 02:01N 39°06' W 075°12'714.7
2017-Jul-04 01:30N 39°12' W 075°17'713.9
2017-Jul-04 01:00N 39°18' W 075°22'713.1
2017-Jul-04 00:30N 39°23' W 075°28'612.1
2017-Jul-04 00:00N 39°27' W 075°33'611.0
2017-Jul-03 23:31N 39°32' W 075°33'510.6
2017-Jul-03 23:01N 39°38' W 075°35'510.7
2017-Jul-03 22:31N 39°42' W 075°31'5 9.6
2017-Jul-03 22:01N 39°46' W 075°28'4 8.8
2017-Jul-03 21:31N 39°49' W 075°24'5 9.7
2017-Jul-03 21:00N 39°51' W 075°18'4 7.7
2017-Jul-03 20:30N 39°52' W 075°13'0 0.3
2017-Jul-03 20:00N 39°52' W 075°13'0 0.0
2017-Jul-03 19:27N 39°52' W 075°13'0 0.0
2017-Jul-03 19:00N 39°52' W 075°13'0 0.0
2017-Jul-03 18:30N 39°52' W 075°13'0 0.0
2017-Jul-03 18:00N 39°52' W 075°13'0 0.0
2017-Jul-03 17:27N 39°52' W 075°13'0 0.0
2017-Jul-03 17:00N 39°52' W 075°13'0 0.0
2017-Jul-03 16:30N 39°52' W 075°13'0 0.0
2017-Jul-03 16:00N 39°52' W 075°13'0 0.0
2017-Jul-03 15:30N 39°52' W 075°13'0 0.0
2017-Jul-03 15:00N 39°52' W 075°13'0 0.0
2017-Jul-03 14:00N 39°52' W 075°13'0 0.0
2017-Jul-03 13:30N 39°52' W 075°13'0 0.0
2017-Jul-03 13:00N 39°52' W 075°13'0 0.0
2017-Jul-03 12:30N 39°52' W 075°13'0 0.0
2017-Jul-03 12:00N 39°52' W 075°13'0 0.0
2017-Jul-03 11:30N 39°52' W 075°13'0 0.0
2017-Jul-03 11:00N 39°52' W 075°13'0 0.0
2017-Jul-03 10:30N 39°52' W 075°13'0 0.0
2017-Jul-03 10:00N 39°52' W 075°13'0 0.0
2017-Jul-03 09:30N 39°52' W 075°13'0 0.0
2017-Jul-03 09:00N 39°52' W 075°13'0 0.0
2017-Jul-03 08:30N 39°52' W 075°13'0 0.0
2017-Jul-03 08:00N 39°52' W 075°13'0 0.0
2017-Jul-03 07:30N 39°52' W 075°13'0 0.0
2017-Jul-03 07:00N 39°52' W 075°13'0 0.0
2017-Jul-03 06:30N 39°52' W 075°13'0 0.0
2017-Jul-03 06:00N 39°52' W 075°13'0 0.0
2017-Jul-03 05:30N 39°52' W 075°13'0 0.0
2017-Jul-03 05:00N 39°52' W 075°13'0 0.0
2017-Jul-03 04:30N 39°52' W 075°13'0 0.0
2017-Jul-03 04:00N 39°52' W 075°13'0 0.0
2017-Jul-03 03:30N 39°52' W 075°13'0 0.0
2017-Jul-03 03:00N 39°52' W 075°13'0 0.0
2017-Jul-03 02:30N 39°52' W 075°13'0 0.0
2017-Jul-03 02:00N 39°52' W 075°13'0 0.0
2017-Jul-03 01:30N 39°52' W 075°13'0 0.0
2017-Jul-03 01:00N 39°52' W 075°13'0 0.0
2017-Jul-03 00:30N 39°52' W 075°13'0 0.0
2017-Jul-03 00:00N 39°52' W 075°13'0 0.0
2017-Jul-02 23:30N 39°52' W 075°13'0 0.0
2017-Jul-02 23:00N 39°52' W 075°13'0 0.0
2017-Jul-02 22:30N 39°52' W 075°13'0 0.0
2017-Jul-02 22:00N 39°52' W 075°13'0 0.0
2017-Jul-02 21:30N 39°52' W 075°13'0 0.0
2017-Jul-02 21:00N 39°52' W 075°13'0 0.0
2017-Jul-02 20:30N 39°52' W 075°13'0 0.0
2017-Jul-02 20:00N 39°52' W 075°13'0 0.0
2017-Jul-02 19:30N 39°52' W 075°13'0 0.2
2017-Jul-02 19:00N 39°52' W 075°13'2 3.5
2017-Jul-02 18:30N 39°51' W 075°15'3 7.0
2017-Jul-02 18:00N 39°51' W 075°20'4 7.6
2017-Jul-02 17:30N 39°49' W 075°24'4 7.4
2017-Jul-02 17:00N 39°47' W 075°28'5 9.9
2017-Jul-02 16:30N 39°42' W 075°31'5 9.7
2017-Jul-02 16:00N 39°38' W 075°34'4 8.6
2017-Jul-02 15:30N 39°34' W 075°33'5 9.7
2017-Jul-02 15:00N 39°29' W 075°34'1010.1
2017-Jul-02 14:00N 39°21' W 075°26'510.5
2017-Jul-02 13:31N 39°17' W 075°22'510.8
2017-Jul-02 13:01N 39°13' W 075°17'611.3
2017-Jul-02 12:30N 39°08' W 075°14'611.3
2017-Jul-02 12:01N 39°03' W 075°10'611.4
2017-Jul-02 11:30N 38°58' W 075°07'5 9.5
2017-Jul-02 11:00N 38°53' W 075°06'612.2
2017-Jul-02 10:30N 38°58' W 075°11'2 4.2
2017-Jul-02 10:00N 38°59' W 075°13'0 0.0
2017-Jul-02 09:29N 38°59' W 075°13'0 0.1
2017-Jul-02 08:59N 38°59' W 075°13'0 0.0
2017-Jul-02 08:29N 38°59' W 075°13'0 0.0
2017-Jul-02 07:59N 38°59' W 075°13'0 0.0
2017-Jul-02 07:29N 38°59' W 075°13'0 0.0
2017-Jul-02 06:59N 38°59' W 075°13'0 0.0
2017-Jul-02 06:29N 38°59' W 075°13'0 0.0
2017-Jul-02 05:59N 38°59' W 075°13'0 0.0
2017-Jul-02 05:29N 38°59' W 075°13'0 0.1
2017-Jul-02 04:59N 38°59' W 075°13'0 0.3
2017-Jul-02 04:29N 38°59' W 075°13'0 0.2
2017-Jul-02 03:56N 38°59' W 075°13'0 0.1
2017-Jul-02 03:29N 38°59' W 075°13'0 0.1
2017-Jul-02 02:59N 38°59' W 075°13'0 0.0
2017-Jul-02 02:26N 38°59' W 075°13'0 0.0
2017-Jul-02 01:59N 38°59' W 075°13'0 0.0
2017-Jul-02 01:29N 38°59' W 075°13'0 0.0
2017-Jul-02 00:59N 38°59' W 075°13'0 0.0
2017-Jul-02 00:29N 38°59' W 075°13'0 0.0
2017-Jul-01 23:56N 38°59' W 075°13'0 0.1
2017-Jul-01 23:29N 38°59' W 075°13'0 0.1
2017-Jul-01 22:59N 38°59' W 075°13'0 0.3
2017-Jul-01 22:29N 38°59' W 075°13'0 0.1
2017-Jul-01 20:56N 38°59' W 075°13'0 0.0
2017-Jul-01 20:29N 38°59' W 075°13'0 0.0
2017-Jul-01 16:47N 38°59' W 075°13'0 0.0
2017-Jul-01 16:26N 38°59' W 075°13'0 0.2
2017-Jul-01 15:59N 38°59' W 075°13'0 0.4
2017-Jul-01 15:29N 38°59' W 075°13'0 0.1
2017-Jul-01 14:59N 38°59' W 075°13'0 0.0
2017-Jul-01 13:59N 38°59' W 075°13'0 0.1
2017-Jul-01 13:29N 38°59' W 075°13'0 0.0
2017-Jul-01 12:59N 38°59' W 075°13'0 0.0
2017-Jul-01 12:29N 38°59' W 075°13'0 0.0
2017-Jul-01 11:59N 38°59' W 075°13'0 0.0
2017-Jul-01 11:26N 38°59' W 075°13'0 0.0
2017-Jul-01 10:59N 38°59' W 075°13'0 0.1
2017-Jul-01 10:29N 38°59' W 075°13'0 0.2
2017-Jul-01 09:59N 38°59' W 075°13'0 0.3
2017-Jul-01 09:26N 38°59' W 075°13'0 0.0
2017-Jul-01 07:23N 38°59' W 075°13'0 0.0
2017-Jul-01 05:47N 38°59' W 075°13'0 0.0
2017-Jul-01 04:23N 38°59' W 075°13'0 0.0
2017-Jul-01 03:56N 38°59' W 075°13'0 0.3
2017-Jul-01 03:29N 38°59' W 075°13'0 0.3
2017-Jul-01 02:56N 38°59' W 075°13'0 0.2
2017-Jul-01 02:29N 38°59' W 075°13'0 0.0
2017-Jul-01 01:59N 38°59' W 075°13'0 0.0
2017-Jul-01 01:29N 38°59' W 075°13'0 0.0
2017-Jul-01 00:59N 38°59' W 075°13'0 0.0
2017-Jul-01 00:29N 38°59' W 075°13'0 0.0
2017-Jun-30 23:50N 38°59' W 075°13'0 0.0
2017-Jun-30 23:29N 38°59' W 075°13'0 0.1
2017-Jun-30 22:05N 38°59' W 075°13'0 0.1
2017-Jun-30 21:59N 38°59' W 075°13'0 0.2
2017-Jun-30 21:23N 38°59' W 075°13'0 0.0
2017-Jun-30 18:17N 38°59' W 075°13'0 0.0
2017-Jun-30 17:41N 38°59' W 075°13'0 0.0
2017-Jun-30 16:20N 38°59' W 075°13'0 0.0
2017-Jun-30 15:59N 38°59' W 075°13'0 0.0
2017-Jun-30 15:29N 38°59' W 075°13'0 0.3
2017-Jun-30 14:59N 38°59' W 075°13'0 0.3
2017-Jun-30 14:29N 38°59' W 075°13'0 0.1
2017-Jun-30 13:59N 38°59' W 075°13'0 0.0
2017-Jun-30 13:29N 38°59' W 075°13'0 0.0
2017-Jun-30 12:59N 38°59' W 075°13'0 0.0
2017-Jun-30 12:30N 38°59' W 075°13'0 0.0
2017-Jun-30 11:53N 38°59' W 075°13'0 0.0
2017-Jun-30 11:29N 38°59' W 075°13'0 0.0
2017-Jun-30 10:59N 38°59' W 075°13'0 0.0
2017-Jun-30 10:29N 38°59' W 075°13'0 0.0
2017-Jun-30 09:59N 38°59' W 075°13'0 0.1
2017-Jun-30 09:26N 38°59' W 075°13'0 0.3
2017-Jun-30 08:59N 38°59' W 075°13'0 0.3
2017-Jun-30 08:29N 38°59' W 075°13'0 0.0
2017-Jun-30 06:02N 38°59' W 075°13'0 0.0
2017-Jun-30 05:59N 38°59' W 075°13'0 0.0
2017-Jun-30 04:11N 38°59' W 075°13'0 0.0
2017-Jun-30 03:44N 38°59' W 075°13'0 0.0
2017-Jun-30 02:48N 38°59' W 075°13'0 0.2
2017-Jun-30 02:23N 38°59' W 075°13'0 0.4
2017-Jun-30 01:59N 38°59' W 075°13'0 0.2
2017-Jun-30 01:30N 38°59' W 075°13'0 0.1
2017-Jun-30 00:59N 38°59' W 075°13'0 0.0
2017-Jun-30 00:26N 38°59' W 075°13'0 0.0
2017-Jun-29 23:53N 38°59' W 075°13'0 0.0
2017-Jun-29 23:29N 38°59' W 075°13'0 0.0
2017-Jun-29 22:59N 38°59' W 075°13'0 0.2
2017-Jun-29 22:29N 38°59' W 075°13'0 0.1
2017-Jun-29 21:59N 38°59' W 075°13'0 0.0
2017-Jun-29 21:29N 38°59' W 075°13'0 0.2
2017-Jun-29 20:59N 38°59' W 075°13'0 0.2
2017-Jun-29 20:20N 38°59' W 075°13'0 0.1
2017-Jun-29 18:56N 38°59' W 075°13'0 0.0
2017-Jun-29 16:23N 38°59' W 075°13'0 0.0
2017-Jun-29 14:35N 38°59' W 075°13'0 0.1
2017-Jun-29 13:59N 38°59' W 075°13'0 0.4
2017-Jun-29 13:29N 38°59' W 075°13'0 0.2
2017-Jun-29 12:59N 38°59' W 075°13'0 0.0
2017-Jun-29 12:29N 38°59' W 075°13'0 0.0
2017-Jun-29 11:56N 38°59' W 075°13'0 0.0
2017-Jun-29 11:23N 38°59' W 075°13'0 0.0
2017-Jun-29 10:59N 38°59' W 075°13'0 0.1
2017-Jun-29 10:29N 38°59' W 075°13'0 0.0
2017-Jun-29 09:59N 38°59' W 075°13'0 0.0
2017-Jun-29 09:29N 38°59' W 075°13'0 0.0
2017-Jun-29 08:59N 38°59' W 075°13'0 0.2
2017-Jun-29 08:29N 38°59' W 075°13'0 0.3
2017-Jun-29 07:59N 38°59' W 075°13'0 0.2
2017-Jun-29 07:29N 38°59' W 075°13'0 0.1
2017-Jun-29 06:59N 38°59' W 075°13'0 0.0
2017-Jun-29 06:26N 38°59' W 075°13'0 0.0
2017-Jun-29 05:50N 38°59' W 075°13'0 0.0
2017-Jun-29 05:26N 38°59' W 075°13'0 0.1
2017-Jun-29 04:53N 38°59' W 075°13'0 0.0
2017-Jun-29 04:29N 38°59' W 075°13'0 0.0
2017-Jun-29 03:59N 38°59' W 075°13'0 0.0
2017-Jun-29 03:24N 38°59' W 075°13'0 0.0
2017-Jun-29 02:59N 38°59' W 075°13'0 0.0
2017-Jun-29 02:29N 38°59' W 075°13'0 0.0
2017-Jun-29 01:59N 38°59' W 075°13'0 0.1
2017-Jun-29 01:26N 38°59' W 075°13'0 0.3
2017-Jun-29 00:59N 38°59' W 075°13'0 0.2
2017-Jun-29 00:26N 38°59' W 075°13'0 0.1
2017-Jun-28 23:56N 38°59' W 075°13'0 0.1
2017-Jun-28 23:29N 38°59' W 075°13'0 0.1
2017-Jun-28 22:59N 38°59' W 075°13'0 0.0
2017-Jun-28 22:29N 38°59' W 075°13'0 0.0
2017-Jun-28 21:59N 38°59' W 075°13'0 0.0
2017-Jun-28 21:29N 38°59' W 075°13'0 0.0
2017-Jun-28 20:59N 38°59' W 075°13'0 0.0
2017-Jun-27 22:26N 38°59' W 075°13'0 0.0
2017-Jun-27 21:59N 38°59' W 075°13'0 0.0
2017-Jun-27 21:29N 38°59' W 075°13'0 0.0
2017-Jun-27 20:59N 38°59' W 075°13'0 0.0
2017-Jun-27 20:26N 38°59' W 075°13'0 0.0
2017-Jun-27 19:59N 38°59' W 075°13'0 0.0
2017-Jun-27 19:29N 38°59' W 075°13'0 0.1
2017-Jun-27 16:11N 38°59' W 075°13'0 0.0
2017-Jun-27 12:53N 38°59' W 075°13'0 0.2
2017-Jun-27 12:29N 38°59' W 075°13'0 0.4
2017-Jun-27 11:53N 38°59' W 075°13'0 0.1
2017-Jun-27 11:29N 38°59' W 075°13'0 0.0
2017-Jun-27 10:56N 38°59' W 075°13'0 0.1
2017-Jun-27 10:29N 38°59' W 075°13'0 0.1
2017-Jun-27 09:53N 38°59' W 075°13'0 0.1
2017-Jun-27 09:23N 38°59' W 075°13'0 0.1
2017-Jun-27 08:23N 38°59' W 075°13'0 0.0
2017-Jun-27 07:53N 38°59' W 075°13'0 0.0
2017-Jun-27 07:29N 38°59' W 075°13'0 0.0
2017-Jun-27 06:56N 38°59' W 075°13'0 0.2
2017-Jun-27 06:29N 38°59' W 075°13'0 0.3
2017-Jun-27 05:59N 38°59' W 075°13'0 0.3
2017-Jun-27 05:29N 38°59' W 075°13'0 0.1
2017-Jun-27 04:53N 38°59' W 075°13'0 0.0
2017-Jun-27 04:26N 38°59' W 075°13'0 0.0
2017-Jun-27 03:56N 38°59' W 075°13'0 0.0
2017-Jun-27 02:44N 38°59' W 075°13'0 0.1
2017-Jun-27 02:29N 38°59' W 075°13'0 0.0
2017-Jun-27 01:59N 38°59' W 075°13'0 0.0
2017-Jun-27 01:29N 38°59' W 075°13'0 0.0
2017-Jun-27 00:59N 38°59' W 075°13'0 0.1
2017-Jun-26 23:23N 38°59' W 075°13'0 0.4
2017-Jun-26 22:56N 38°59' W 075°13'0 0.1
2017-Jun-26 22:20N 38°59' W 075°13'0 0.0
2017-Jun-26 21:59N 38°59' W 075°13'0 0.1
2017-Jun-26 21:27N 38°59' W 075°13'0 0.1
2017-Jun-26 20:59N 38°59' W 075°13'0 0.0
2017-Jun-26 20:29N 38°59' W 075°13'0 0.1
2017-Jun-26 19:59N 38°59' W 075°13'0 0.0
2017-Jun-26 19:20N 38°59' W 075°13'0 0.0
2017-Jun-26 18:56N 38°59' W 075°13'0 0.2
2017-Jun-26 18:29N 38°59' W 075°13'0 0.3
2017-Jun-26 17:35N 38°59' W 075°13'0 0.1
2017-Jun-26 17:29N 38°59' W 075°13'0 0.0
2017-Jun-26 16:59N 38°59' W 075°13'0 0.0
2017-Jun-26 15:23N 38°59' W 075°13'0 0.0
2017-Jun-26 11:56N 38°59' W 075°13'0 0.4
2017-Jun-26 11:17N 38°59' W 075°13'0 0.1
2017-Jun-26 10:59N 38°59' W 075°13'0 0.0
2017-Jun-26 10:29N 38°59' W 075°13'0 0.0
2017-Jun-26 09:59N 38°59' W 075°13'0 0.0
2017-Jun-26 09:26N 38°59' W 075°13'0 0.0
2017-Jun-26 08:59N 38°59' W 075°13'0 0.0
2017-Jun-26 08:29N 38°59' W 075°13'0 0.0
2017-Jun-26 07:59N 38°59' W 075°13'0 0.1
2017-Jun-26 07:29N 38°59' W 075°13'0 0.0
2017-Jun-26 06:59N 38°59' W 075°13'0 0.1
2017-Jun-26 06:29N 38°59' W 075°13'0 0.1
2017-Jun-26 05:59N 38°59' W 075°13'0 0.1
2017-Jun-26 05:29N 38°59' W 075°13'0 0.3
2017-Jun-26 04:56N 38°59' W 075°13'0 0.4
2017-Jun-26 04:29N 38°59' W 075°13'0 0.1
2017-Jun-26 03:59N 38°59' W 075°13'0 0.0
2017-Jun-26 03:29N 38°59' W 075°13'0 0.1
2017-Jun-26 02:50N 38°59' W 075°13'0 0.3
2017-Jun-26 02:30N 38°59' W 075°13'2 3.6
2017-Jun-26 02:01N 38°58' W 075°12'611.1
2017-Jun-26 01:30N 38°53' W 075°08'713.2
2017-Jun-26 01:00N 38°48' W 075°03'4 7.7
2017-Jun-26 00:31N 38°46' W 074°59'4 7.9
2017-Jun-26 00:01N 38°43' W 074°55'1010.7
2017-Jun-25 23:07N 38°35' W 074°47'112.1
2017-Jun-25 23:00N 38°34' W 074°46'612.0
2017-Jun-25 22:29N 38°29' W 074°41'611.2
2017-Jun-25 21:55N 38°26' W 074°35'2 2.8
2017-Jun-25 21:19N 38°25' W 074°32'1 3.7
2017-Jun-25 20:59N 38°25' W 074°31'612.0
2017-Jun-25 20:30N 38°24' W 074°24'612.8
2017-Jun-25 20:00N 38°26' W 074°16'613.0
2017-Jun-25 19:30N 38°29' W 074°08'713.1
2017-Jun-25 19:00N 38°31' W 074°01'713.3
2017-Jun-25 18:30N 38°33' W 073°53'713.1
2017-Jun-25 17:58N 38°36' W 073°44'  

Dump ship's entire track history